This is the latest recevied weather packets stored in our database for station/object WMKN. If no packets are shown the sender has not sent any weather packets the latest 10 day(s).
| Time | Temp. | Humidity | Pressure | Rain* | Wind** | Luminosity | Snow |
|---|---|---|---|---|---|---|---|
| 1777831831 | 27.78° C | 83% | 1009 hPa | - | - | - | - |
| 1777817427 | 30° C | 79% | 1009 hPa | - | - | - | - |
| 1777803030 | 31.67° C | 70% | 1006 hPa | - | - | - | - |
| 1777799430 | 31.67° C | 70% | 1006 hPa | - | - | - | - |
| 1777795843 | 32.78° C | 66% | 1006 hPa | - | - | - | - |
| 1777792231 | 33.89° C | 63% | 1007 hPa | - | - | - | - |
| 1777788630 | 33.89° C | 63% | 1009 hPa | - | - | - | - |
| 1777785029 | 33.89° C | 63% | 1009 hPa | - | - | - | - |
| 1777781442 | 32.78° C | 66% | 1010 hPa | - | - | - | - |
| 1777777831 | 32.78° C | 62% | 1010 hPa | - | - | - | - |
| 1777774234 | 30.56° C | 74% | 1010 hPa | - | - | - | - |
| 1777770629 | 28.89° C | 83% | 1009 hPa | - | - | - | - |
| 1777759829 | 25.56° C | 94% | 1007 hPa | - | - | - | - |
| 1777756229 | 25.56° C | 94% | 1007 hPa | - | - | - | - |
| 1777752628 | 26.67° C | 88% | 1007 hPa | - | - | - | - |
| 1777749045 | 26.67° C | 88% | 1008 hPa | - | - | - | - |
| 1777745428 | 26.67° C | 88% | 1009 hPa | - | - | - | - |
| 1777741828 | 27.78° C | 83% | 1009 hPa | - | - | - | - |
| 1777740628 | 27.78° C | 83% | 1010 hPa | - | - | - | - |
| 1777738228 | 27.78° C | 83% | 1010 hPa | - | - | - | - |
| 1777734628 | 28.89° C | 79% | 1009 hPa | - | - | - | - |
| 1777731042 | 30° C | 79% | 1009 hPa | - | - | - | - |
| 1777727428 | 30° C | 74% | 1008 hPa | - | - | - | - |
| 1777723833 | 30° C | 74% | 1007 hPa | - | - | - | - |
| 1777720229 | 30.56° C | 74% | 1006 hPa | - | - | - | - |
* Rain since midnight (hover to see other rain measurements)
** Current wind speed in m/s (hover to see current wind gust speed)